Archival Weather

Joint Base Andrews

Camp Springs, Maryland (KADW)

Report from: Tuesday, February 27, 2024 10:55 AM EST
Current time: Wednesday, May 29, 2024 7:35 PM EDT

Current weather – Weather history – Daily summaries
Weather forecast

Temperature17.6°C (63.7°F)
Dew point3.1°C (37.6°F)
Winds 14 kts (7.2 m/s, 16.1 mph) South (180°)
Visibility10 mi. (16.1 km)
Clouds Few clouds 17,000 ft. (5,182 m)
Altimeter29.90 in.Hg (1013 mB)
Relative humidity38 %
Density altitude423 ft. (129 m)
Sea-level pressure101.3 kPa (1013 mB, 29.92 in.Hg)
Remarks Fully automated report
System requires maintenance
Automated weather observing station with precipitation discriminator
Flight conditions Visual Meteorological Conditions
Raw dataKADW 271555Z AUTO 18014KT 10SM FEW170 18/03 A2990 RMK AO2 SLP132 T01760031 $
An error has occurred. This application may no longer respond until reloaded. Reload 🗙